createdAt,value
2023-02-04T00:00:29.418Z,7.07
2023-02-04T00:02:57.551Z,12.50
2023-02-04T00:05:26.795Z,9.10
2023-02-04T00:07:54.677Z,8.38
2023-02-04T00:10:22.501Z,6.97
2023-02-04T00:12:50.395Z,6.72
2023-02-04T00:15:18.250Z,7.05
2023-02-04T00:17:46.117Z,8.60
2023-02-04T00:20:14.418Z,5.93
2023-02-04T00:22:43.684Z,10.77
2023-02-04T00:25:11.552Z,6.15
2023-02-04T00:27:39.740Z,6.05
2023-02-04T00:30:09.151Z,6.35
2023-02-04T00:32:37.121Z,7.13
2023-02-04T00:35:05.551Z,4.85
2023-02-04T00:37:33.640Z,3.22
2023-02-04T00:40:03.089Z,3.90
2023-02-04T00:42:30.951Z,4.40
2023-02-04T00:44:58.925Z,5.50
2023-02-04T00:47:26.776Z,3.72
2023-02-04T00:49:54.702Z,3.63
2023-02-04T00:52:22.570Z,3.60
2023-02-04T00:54:50.427Z,7.20
2023-02-04T00:57:19.974Z,5.55
2023-02-04T00:59:47.849Z,4.72
2023-02-04T01:02:17.158Z,2.50
2023-02-04T01:04:46.146Z,2.63
2023-02-04T01:07:14.136Z,3.05
2023-02-04T01:09:42.018Z,2.80
2023-02-04T01:12:10.092Z,2.08
2023-02-04T01:14:39.237Z,2.63
2023-02-04T01:17:07.071Z,2.45
2023-02-04T01:19:34.881Z,3.92
2023-02-04T01:22:02.749Z,3.58
2023-02-04T01:24:30.566Z,3.55
2023-02-04T01:26:58.380Z,2.05
2023-02-04T01:29:26.278Z,3.13
2023-02-04T01:31:55.543Z,2.58
2023-02-04T01:34:23.530Z,3.05
2023-02-04T01:36:51.338Z,9.75
2023-02-04T01:39:19.164Z,3.28
2023-02-04T01:41:47.064Z,2.78
2023-02-04T01:44:14.924Z,2.78
2023-02-04T01:46:42.880Z,4.22
2023-02-04T01:49:12.701Z,3.65
2023-02-04T01:51:40.568Z,3.63
2023-02-04T01:54:12.770Z,2.90
2023-02-04T01:56:43.834Z,4.60
2023-02-04T01:59:14.136Z,4.03
2023-02-04T02:01:43.933Z,3.70
2023-02-04T02:04:15.337Z,6.40
2023-02-04T02:06:47.517Z,2.75
2023-02-04T02:09:15.410Z,6.47
2023-02-04T02:11:43.265Z,3.90
2023-02-04T02:14:11.882Z,3.95
2023-02-04T02:16:40.003Z,4.25
2023-02-04T02:19:10.333Z,7.85
2023-02-04T02:21:45.717Z,3.80
2023-02-04T02:24:27.172Z,6.35
2023-02-04T02:26:56.060Z,6.22
2023-02-04T02:29:24.710Z,5.63
2023-02-04T02:31:53.192Z,4.55
2023-02-04T02:34:21.071Z,4.80
2023-02-04T02:36:48.956Z,11.43
2023-02-04T02:39:16.878Z,5.03
2023-02-04T02:41:46.165Z,4.15
2023-02-04T02:44:14.864Z,7.45
2023-02-04T02:46:42.734Z,10.10
2023-02-04T02:49:16.483Z,2.58
2023-02-04T02:51:44.754Z,8.75
2023-02-04T02:54:22.770Z,4.22
2023-02-04T02:56:52.519Z,6.15
2023-02-04T02:59:21.023Z,5.13
2023-02-04T03:01:52.421Z,7.30
2023-02-04T03:04:21.822Z,6.00
2023-02-04T03:06:50.238Z,8.02
2023-02-04T03:09:18.537Z,2.95
2023-02-04T03:11:46.439Z,2.92
2023-02-04T03:14:16.237Z,3.28
2023-02-04T03:16:44.396Z,3.38
2023-02-04T03:19:13.438Z,6.13
2023-02-04T03:21:42.060Z,4.78
2023-02-04T03:24:10.321Z,3.22
2023-02-04T03:26:38.522Z,2.95
2023-02-04T03:29:08.857Z,4.47
2023-02-04T03:31:38.766Z,8.45
2023-02-04T03:34:07.066Z,2.45
2023-02-04T03:36:34.963Z,3.50
2023-02-04T03:39:03.091Z,5.50
2023-02-04T03:41:30.962Z,7.05
2023-02-04T03:43:58.811Z,6.38
2023-02-04T03:46:27.429Z,4.55
2023-02-04T03:48:56.682Z,7.00
2023-02-04T03:51:24.558Z,7.38
2023-02-04T03:53:52.389Z,9.57
2023-02-04T03:56:20.222Z,9.50
2023-02-04T03:58:48.084Z,10.50
2023-02-04T04:01:15.955Z,13.80
2023-02-04T04:03:43.817Z,14.10
2023-02-04T04:06:12.984Z,12.45
2023-02-04T04:08:40.878Z,19.02
2023-02-04T04:11:09.031Z,17.45
2023-02-04T04:13:36.888Z,15.75
2023-02-04T04:16:05.302Z,14.95
2023-02-04T04:18:33.661Z,12.35
2023-02-04T04:21:01.662Z,16.70
2023-02-04T04:23:31.033Z,23.02
2023-02-04T04:25:58.865Z,15.65
2023-02-04T04:28:26.688Z,16.17
2023-02-04T04:30:54.593Z,16.48
2023-02-04T04:33:22.503Z,10.90
2023-02-04T04:35:50.366Z,11.75
2023-02-04T04:38:18.245Z,17.67
2023-02-04T04:40:47.499Z,15.60
2023-02-04T04:43:15.391Z,12.30
2023-02-04T04:45:43.219Z,15.85
2023-02-04T04:48:11.072Z,7.20
2023-02-04T04:50:38.911Z,15.70
2023-02-04T04:53:11.005Z,12.32
2023-02-04T04:55:38.872Z,10.82
2023-02-04T04:58:08.947Z,16.10
2023-02-04T05:00:36.900Z,16.88
2023-02-04T05:03:04.842Z,16.35
2023-02-04T05:05:32.734Z,12.35
2023-02-04T05:08:00.568Z,16.73
2023-02-04T05:10:28.394Z,13.15
2023-02-04T05:12:56.258Z,9.90
2023-02-04T05:15:25.595Z,12.85
2023-02-04T05:17:53.594Z,12.18
2023-02-04T05:20:21.492Z,10.55
2023-02-04T05:22:49.319Z,10.00
2023-02-04T05:25:17.754Z,13.32
2023-02-04T05:27:45.974Z,13.13
2023-02-04T05:30:15.201Z,12.85
2023-02-04T05:32:44.427Z,15.52
2023-02-04T05:35:12.921Z,13.98
2023-02-04T05:37:40.800Z,20.73
2023-02-04T05:40:09.777Z,15.82
2023-02-04T05:42:37.760Z,17.15
2023-02-04T05:45:06.057Z,12.27
2023-02-04T05:47:33.922Z,16.70
2023-02-04T05:50:03.100Z,12.27
2023-02-04T05:52:31.181Z,18.08
2023-02-04T05:54:59.070Z,18.38
2023-02-04T05:57:27.019Z,27.45
2023-02-04T05:59:54.872Z,12.93
2023-02-04T06:02:22.737Z,11.38
2023-02-04T06:04:50.652Z,13.27
2023-02-04T06:07:19.860Z,13.75
2023-02-04T06:09:47.691Z,14.02
2023-02-04T06:12:15.599Z,12.40
2023-02-04T06:14:43.465Z,8.82
2023-02-04T06:17:11.363Z,15.35
2023-02-04T06:19:39.313Z,16.30
2023-02-04T06:22:07.266Z,18.70
2023-02-04T06:24:36.843Z,13.15
2023-02-04T06:27:04.893Z,14.82
2023-02-04T06:29:32.751Z,14.85
2023-02-04T06:32:00.688Z,28.17
2023-02-04T06:34:28.630Z,22.20
2023-02-04T06:36:56.470Z,24.25
2023-02-04T06:39:24.414Z,17.45
2023-02-04T06:41:53.618Z,21.73
2023-02-04T06:44:21.482Z,18.48
2023-02-04T06:46:49.325Z,27.17
2023-02-04T06:49:17.182Z,29.58
2023-02-04T06:51:45.007Z,24.92
2023-02-04T06:54:12.869Z,23.73
2023-02-04T06:56:40.713Z,22.17
2023-02-04T06:59:09.912Z,28.67
2023-02-04T07:01:37.837Z,25.73
2023-02-04T07:04:06.004Z,24.45
2023-02-04T07:06:33.986Z,23.85
2023-02-04T07:09:01.815Z,28.02
2023-02-04T07:11:29.638Z,29.23
2023-02-04T07:13:57.505Z,24.05
2023-02-04T07:16:26.685Z,30.67
2023-02-04T07:18:54.517Z,26.10
2023-02-04T07:21:22.398Z,34.08
2023-02-04T07:23:50.261Z,31.48
2023-02-04T07:26:18.080Z,24.15
2023-02-04T07:28:46.135Z,27.35
2023-02-04T07:31:14.348Z,34.60
2023-02-04T07:33:43.677Z,34.22
2023-02-04T07:36:11.516Z,30.58
2023-02-04T07:38:39.569Z,38.70
2023-02-04T07:41:07.412Z,33.47
2023-02-04T07:43:35.367Z,30.20
2023-02-04T07:46:03.243Z,29.75
2023-02-04T07:48:31.081Z,37.47
2023-02-04T07:51:00.214Z,37.42
2023-02-04T07:53:28.240Z,30.92
2023-02-04T07:55:56.088Z,26.40
2023-02-04T07:58:23.986Z,31.38
2023-02-04T08:00:51.886Z,38.03
2023-02-04T08:03:19.795Z,32.05
2023-02-04T08:05:47.636Z,23.10
2023-02-04T08:08:16.883Z,34.92
2023-02-04T08:10:44.839Z,30.27
2023-02-04T08:13:12.956Z,38.78
2023-02-04T08:15:40.782Z,20.58
2023-02-04T08:18:08.646Z,28.35
2023-02-04T08:20:36.505Z,31.63
2023-02-04T08:23:04.358Z,36.47
2023-02-04T08:25:33.525Z,36.70
2023-02-04T08:28:01.495Z,31.27
2023-02-04T08:30:29.551Z,33.67
2023-02-04T08:32:57.464Z,25.60
2023-02-04T08:35:25.329Z,35.03
2023-02-04T08:37:53.210Z,24.95
2023-02-04T08:40:21.157Z,31.83
2023-02-04T08:42:50.443Z,24.15
2023-02-04T08:45:18.529Z,24.17
2023-02-04T08:47:46.412Z,26.58
2023-02-04T08:50:14.316Z,27.88
2023-02-04T08:52:42.162Z,27.52
2023-02-04T08:55:10.339Z,24.77
2023-02-04T08:57:38.251Z,24.30
2023-02-04T09:00:08.863Z,34.63
2023-02-04T09:02:36.729Z,32.78
2023-02-04T09:05:04.804Z,21.80
2023-02-04T09:07:32.708Z,27.40
2023-02-04T09:10:00.629Z,36.47
2023-02-04T09:12:28.491Z,14.77
2023-02-04T09:14:56.318Z,27.08
2023-02-04T09:17:26.131Z,32.83
2023-02-04T09:19:53.959Z,20.45
2023-02-04T09:22:21.992Z,25.38
2023-02-04T09:24:49.820Z,22.23
2023-02-04T09:27:17.761Z,30.15
2023-02-04T09:29:45.564Z,19.13
2023-02-04T09:32:13.450Z,18.15
2023-02-04T09:34:42.710Z,15.02
2023-02-04T09:37:10.620Z,15.68
2023-02-04T09:39:38.501Z,19.38
2023-02-04T09:42:06.506Z,19.33
2023-02-04T09:44:34.397Z,28.38
2023-02-04T09:47:02.699Z,31.23
2023-02-04T09:49:30.849Z,15.98
2023-02-04T09:52:00.203Z,20.92
2023-02-04T09:54:28.037Z,16.10
2023-02-04T09:56:56.949Z,13.25
2023-02-04T09:59:28.245Z,15.07
2023-02-04T10:01:59.095Z,22.67
2023-02-04T10:04:27.196Z,16.38
2023-02-04T10:06:58.490Z,25.33
2023-02-04T10:09:27.844Z,21.23
2023-02-04T10:11:55.904Z,17.73
2023-02-04T10:14:24.923Z,15.95
2023-02-04T10:16:58.788Z,14.82
2023-02-04T10:19:29.578Z,18.23
2023-02-04T10:21:57.926Z,17.17
2023-02-04T10:24:30.486Z,17.25
2023-02-04T10:27:08.344Z,22.08
2023-02-04T10:29:36.291Z,16.02
2023-02-04T10:32:04.164Z,16.50
2023-02-04T10:34:37.898Z,16.83
2023-02-04T10:37:18.854Z,9.13
2023-02-04T10:39:48.792Z,16.55
2023-02-04T10:42:23.089Z,10.57
2023-02-04T10:44:51.365Z,17.33
2023-02-04T10:47:21.874Z,15.77
2023-02-04T10:49:54.848Z,23.08
2023-02-04T10:52:25.519Z,17.98
2023-02-04T10:54:54.707Z,21.75
2023-02-04T10:57:25.440Z,26.48
2023-02-04T10:59:56.911Z,26.45
2023-02-04T11:02:38.838Z,17.48
2023-02-04T11:05:13.161Z,17.90
2023-02-04T11:07:41.037Z,19.15
2023-02-04T11:10:15.134Z,15.32
2023-02-04T11:12:45.617Z,14.95
2023-02-04T11:15:40.123Z,17.50
2023-02-04T11:18:10.613Z,22.42
2023-02-04T11:20:39.944Z,20.05
2023-02-04T11:23:30.816Z,25.23
2023-02-04T11:26:13.174Z,23.30
2023-02-04T11:28:47.418Z,24.80
2023-02-04T11:31:26.167Z,22.60
2023-02-04T11:34:13.420Z,17.52
2023-02-04T11:37:12.569Z,16.40
2023-02-04T11:39:42.397Z,15.93
2023-02-04T11:42:23.098Z,21.17
2023-02-04T11:44:53.093Z,22.33
2023-02-04T11:47:21.766Z,14.63
2023-02-04T11:49:56.969Z,18.33
2023-02-04T11:52:25.005Z,17.63
2023-02-04T11:54:57.665Z,14.75
2023-02-04T11:57:26.957Z,17.05
2023-02-04T11:59:55.051Z,14.50
2023-02-04T12:02:25.978Z,16.48
2023-02-04T12:04:58.752Z,18.23
2023-02-04T12:07:29.262Z,14.60
2023-02-04T12:09:58.104Z,15.13
2023-02-04T12:12:29.743Z,26.88
2023-02-04T12:14:58.797Z,16.35
2023-02-04T12:17:26.662Z,16.60
2023-02-04T12:19:54.489Z,12.52
2023-02-04T12:22:22.371Z,20.42
2023-02-04T12:24:52.275Z,22.20
2023-02-04T12:27:20.273Z,19.20
2023-02-04T12:29:49.426Z,20.40
2023-02-04T12:32:17.285Z,16.17
2023-02-04T12:34:45.635Z,13.85
2023-02-04T12:37:13.485Z,16.33
2023-02-04T12:39:41.318Z,19.10
2023-02-04T12:42:09.153Z,12.32
2023-02-04T12:44:36.957Z,27.08
2023-02-04T12:47:06.449Z,15.63
2023-02-04T12:49:34.289Z,18.15
2023-02-04T12:52:03.080Z,16.92
2023-02-04T12:54:30.962Z,15.80
2023-02-04T12:56:59.108Z,19.83
2023-02-04T12:59:27.266Z,14.35
2023-02-04T13:01:55.208Z,18.83
2023-02-04T13:04:24.509Z,16.13
2023-02-04T13:06:52.310Z,17.13
2023-02-04T13:09:20.132Z,20.13
2023-02-04T13:11:47.943Z,17.02
2023-02-04T13:14:15.762Z,18.48
2023-02-04T13:16:43.586Z,14.10
2023-02-04T13:19:11.463Z,17.77
2023-02-04T13:21:40.634Z,10.88
2023-02-04T13:24:08.635Z,15.30
2023-02-04T13:26:36.445Z,10.32
2023-02-04T13:29:04.329Z,14.30
2023-02-04T13:31:32.185Z,9.90
2023-02-04T13:34:00.031Z,16.55
2023-02-04T13:36:30.255Z,16.42
2023-02-04T13:39:00.144Z,14.25
2023-02-04T13:41:28.310Z,11.07
2023-02-04T13:43:57.262Z,16.08
2023-02-04T13:46:25.444Z,11.77
2023-02-04T13:48:53.326Z,18.42
2023-02-04T13:51:21.219Z,14.68
2023-02-04T13:53:49.168Z,13.65
2023-02-04T13:56:18.441Z,15.07
2023-02-04T13:58:46.287Z,14.63
2023-02-04T14:01:15.101Z,18.95
2023-02-04T14:03:43.805Z,14.45
2023-02-04T14:06:11.689Z,10.80
2023-02-04T14:08:39.892Z,17.52
2023-02-04T14:11:08.108Z,13.77
2023-02-04T14:13:37.308Z,13.50
2023-02-04T14:16:06.164Z,8.23
2023-02-04T14:18:34.040Z,13.73
2023-02-04T14:21:01.881Z,17.70
2023-02-04T14:23:29.747Z,11.88
2023-02-04T14:25:57.567Z,12.20
2023-02-04T14:28:25.431Z,14.93
2023-02-04T14:30:55.580Z,11.23
2023-02-04T14:33:23.433Z,21.98
2023-02-04T14:35:51.262Z,16.73
2023-02-04T14:38:19.093Z,12.55
2023-02-04T14:40:47.038Z,14.40
2023-02-04T14:43:14.888Z,14.68
2023-02-04T14:45:42.899Z,10.57
2023-02-04T14:48:12.223Z,14.38
2023-02-04T14:50:40.042Z,16.83
2023-02-04T14:53:07.980Z,9.73
2023-02-04T14:55:36.170Z,15.82
2023-02-04T14:58:04.048Z,13.23
2023-02-04T15:00:32.243Z,14.57
2023-02-04T15:03:00.254Z,15.45
2023-02-04T15:05:29.552Z,13.98
2023-02-04T15:07:57.426Z,21.15
2023-02-04T15:10:25.443Z,19.25
2023-02-04T15:12:55.226Z,15.68
2023-02-04T15:15:23.339Z,13.50
2023-02-04T15:17:51.451Z,22.50
2023-02-04T15:20:19.396Z,15.02
2023-02-04T15:22:51.750Z,24.33
2023-02-04T15:25:20.345Z,22.20
2023-02-04T15:27:48.339Z,18.05
2023-02-04T15:30:17.093Z,17.50
2023-02-04T15:32:46.044Z,17.23
2023-02-04T15:35:14.612Z,20.50
2023-02-04T15:37:42.437Z,20.30
2023-02-04T15:40:12.917Z,21.20
2023-02-04T15:42:40.854Z,21.75
2023-02-04T15:45:09.260Z,13.68
2023-02-04T15:47:37.322Z,24.38
2023-02-04T15:50:08.722Z,17.60
2023-02-04T15:52:36.565Z,16.75
2023-02-04T15:55:04.688Z,22.30
2023-02-04T15:57:33.882Z,17.73
2023-02-04T16:00:01.695Z,20.70
2023-02-04T16:02:29.578Z,24.95
2023-02-04T16:04:58.442Z,15.68
2023-02-04T16:07:26.330Z,20.45
2023-02-04T16:09:54.156Z,24.35
2023-02-04T16:12:21.999Z,18.98
2023-02-04T16:14:51.179Z,28.92
2023-02-04T16:17:19.260Z,26.08
2023-02-04T16:19:47.119Z,23.10
2023-02-04T16:22:15.026Z,19.45
2023-02-04T16:24:43.065Z,18.42
2023-02-04T16:27:10.960Z,21.42
2023-02-04T16:29:38.809Z,25.90
2023-02-04T16:32:08.074Z,17.85
2023-02-04T16:34:35.958Z,14.20
2023-02-04T16:37:03.789Z,21.95
2023-02-04T16:39:31.614Z,25.30
2023-02-04T16:41:59.449Z,14.65
2023-02-04T16:44:27.299Z,20.02
2023-02-04T16:46:55.159Z,17.95
2023-02-04T16:49:24.443Z,17.17
2023-02-04T16:51:52.283Z,12.57
2023-02-04T16:54:20.155Z,16.90
2023-02-04T16:56:48.003Z,22.23
2023-02-04T16:59:15.983Z,24.05
2023-02-04T17:01:43.812Z,24.60
2023-02-04T17:04:11.660Z,22.63
2023-02-04T17:06:41.208Z,14.55
2023-02-04T17:09:09.705Z,23.20
2023-02-04T17:11:37.561Z,15.85
2023-02-04T17:14:08.591Z,15.77
2023-02-04T17:16:36.743Z,9.80
2023-02-04T17:19:05.457Z,21.08
2023-02-04T17:21:33.363Z,17.40
2023-02-04T17:24:04.707Z,20.23
2023-02-04T17:26:37.085Z,10.55
2023-02-04T17:29:06.185Z,16.40
2023-02-04T17:31:34.095Z,19.80
2023-02-04T17:34:03.123Z,12.88
2023-02-04T17:36:31.356Z,15.43
2023-02-04T17:38:59.423Z,14.93
2023-02-04T17:41:29.769Z,15.57
2023-02-04T17:43:58.990Z,17.73
2023-02-04T17:46:26.977Z,12.02
2023-02-04T17:48:54.856Z,10.23
2023-02-04T17:51:22.699Z,16.25
2023-02-04T17:53:50.525Z,14.75
2023-02-04T17:56:18.392Z,11.98
2023-02-04T17:58:47.628Z,18.95
2023-02-04T18:01:18.697Z,22.85
2023-02-04T18:03:47.001Z,13.15
2023-02-04T18:06:20.899Z,15.10
2023-02-04T18:08:49.717Z,13.27
2023-02-04T18:11:21.055Z,21.58
2023-02-04T18:13:50.645Z,13.55
2023-02-04T18:16:25.318Z,18.98
2023-02-04T18:18:55.342Z,17.95
2023-02-04T18:21:25.523Z,26.10
2023-02-04T18:24:03.235Z,16.02
2023-02-04T18:26:33.328Z,22.98
2023-02-04T18:29:16.866Z,19.60
2023-02-04T18:31:50.800Z,21.23
2023-02-04T18:34:23.873Z,16.23
2023-02-04T18:36:51.856Z,11.50
2023-02-04T18:39:21.777Z,16.23
2023-02-04T18:41:51.642Z,41.35
2023-02-04T18:44:30.626Z,19.38
2023-02-04T18:46:59.014Z,18.85
2023-02-04T18:49:29.435Z,22.83
2023-02-04T18:51:57.793Z,16.65
2023-02-04T18:54:36.418Z,25.40
2023-02-04T18:57:37.878Z,14.43
2023-02-04T19:00:26.185Z,24.77
2023-02-04T19:02:56.474Z,25.67
2023-02-04T19:05:33.632Z,18.02
2023-02-04T19:08:18.561Z,20.07
2023-02-04T19:10:46.385Z,21.73
2023-02-04T19:13:19.969Z,18.77
2023-02-04T19:15:57.549Z,19.55
2023-02-04T19:18:28.087Z,29.35
2023-02-04T19:20:56.500Z,19.02
2023-02-04T19:23:25.652Z,22.17
2023-02-04T19:25:54.120Z,18.75
2023-02-04T19:28:28.962Z,20.50
2023-02-04T19:31:01.189Z,20.85
2023-02-04T19:33:33.831Z,21.02
2023-02-04T19:36:33.812Z,22.38
2023-02-04T19:39:03.310Z,22.08
2023-02-04T19:41:39.845Z,18.58
2023-02-04T19:44:35.184Z,16.50
2023-02-04T19:47:23.277Z,25.00
2023-02-04T19:49:51.614Z,25.65
2023-02-04T19:52:30.932Z,110.40
2023-02-04T19:55:28.133Z,90.40
2023-02-04T19:57:59.535Z,73.28
2023-02-04T20:00:44.751Z,39.63
2023-02-04T20:03:25.692Z,40.65
2023-02-04T20:05:53.671Z,33.25
2023-02-04T20:08:44.707Z,37.92
2023-02-04T20:11:54.316Z,58.83
2023-02-04T20:14:42.294Z,52.45
2023-02-04T20:17:22.417Z,39.42
2023-02-04T20:19:51.855Z,31.27
2023-02-04T20:22:46.530Z,35.05
2023-02-04T20:25:39.365Z,37.08
2023-02-04T20:28:37.756Z,26.35
2023-02-04T20:31:22.401Z,33.13
2023-02-04T20:33:52.539Z,38.00
2023-02-04T20:36:45.897Z,37.30
2023-02-04T20:39:35.685Z,33.30
2023-02-04T20:42:34.624Z,30.15
2023-02-04T20:45:33.237Z,32.13
2023-02-04T20:48:11.229Z,48.85
2023-02-04T20:50:41.669Z,42.25
2023-02-04T20:53:25.327Z,26.23
2023-02-04T20:55:56.101Z,40.60
2023-02-04T20:58:25.146Z,30.75
2023-02-04T21:00:55.831Z,28.63
2023-02-04T21:03:30.218Z,28.42
2023-02-04T21:06:00.622Z,28.77
2023-02-04T21:08:35.302Z,28.08
2023-02-04T21:11:03.758Z,38.47
2023-02-04T21:13:31.809Z,42.80
2023-02-04T21:15:59.975Z,40.30
2023-02-04T21:18:29.477Z,30.52
2023-02-04T21:20:57.433Z,34.25
2023-02-04T21:23:25.522Z,26.67
2023-02-04T21:25:54.709Z,27.00
2023-02-04T21:28:22.546Z,30.30
2023-02-04T21:30:50.494Z,21.83
2023-02-04T21:33:18.508Z,24.30
2023-02-04T21:35:46.492Z,25.27
2023-02-04T21:38:14.364Z,25.80
2023-02-04T21:40:42.250Z,24.75
2023-02-04T21:43:11.428Z,19.88
2023-02-04T21:45:39.876Z,32.38
2023-02-04T21:48:08.768Z,22.98
2023-02-04T21:50:38.423Z,25.20
2023-02-04T21:53:06.789Z,24.83
2023-02-04T21:55:35.294Z,25.38
2023-02-04T21:58:03.593Z,26.48
2023-02-04T22:00:33.011Z,30.00
2023-02-04T22:03:01.180Z,24.00
2023-02-04T22:05:29.040Z,16.40
2023-02-04T22:07:58.893Z,26.05
2023-02-04T22:10:27.817Z,24.70
2023-02-04T22:12:55.744Z,24.27
2023-02-04T22:15:24.230Z,27.88
2023-02-04T22:17:55.097Z,27.50
2023-02-04T22:20:25.424Z,20.63
2023-02-04T22:22:53.777Z,27.13
2023-02-04T22:25:22.568Z,25.27
2023-02-04T22:27:50.721Z,23.00
2023-02-04T22:30:19.806Z,25.92
2023-02-04T22:32:47.698Z,28.65
2023-02-04T22:35:17.112Z,36.30
2023-02-04T22:37:45.016Z,24.52
2023-02-04T22:40:13.531Z,27.98
2023-02-04T22:42:41.504Z,33.63
2023-02-04T22:45:11.118Z,21.85
2023-02-04T22:47:39.401Z,24.23
2023-02-04T22:50:08.090Z,30.88
2023-02-04T22:52:37.314Z,26.40
2023-02-04T22:55:05.720Z,26.45
2023-02-04T22:57:33.581Z,24.27
2023-02-04T23:00:01.453Z,29.98
2023-02-04T23:02:29.333Z,25.30
2023-02-04T23:04:57.188Z,25.35
2023-02-04T23:07:25.053Z,28.00
2023-02-04T23:09:54.229Z,38.22
2023-02-04T23:12:22.070Z,21.83
2023-02-04T23:14:50.318Z,28.35
2023-02-04T23:17:19.196Z,30.17
2023-02-04T23:19:47.264Z,26.83
2023-02-04T23:22:15.609Z,20.33
2023-02-04T23:24:44.036Z,26.83
2023-02-04T23:27:13.391Z,21.95
2023-02-04T23:29:41.240Z,27.75
2023-02-04T23:32:09.984Z,24.02
2023-02-04T23:34:37.856Z,21.50
2023-02-04T23:37:05.825Z,27.70
2023-02-04T23:39:33.826Z,29.42
2023-02-04T23:42:02.677Z,28.70
2023-02-04T23:44:31.830Z,23.75
2023-02-04T23:46:59.634Z,33.80
2023-02-04T23:49:27.457Z,34.13
2023-02-04T23:51:55.273Z,34.28
2023-02-04T23:54:23.636Z,32.88
2023-02-04T23:56:52.000Z,34.00
2023-02-04T23:59:19.950Z,39.25
